sensor_id;sensor_type;location;lat;lon;timestamp;P1;durP1;ratioP1;P2;durP2;ratioP2
29006;SDS011;16104;48.642;9.008;2023-04-24T01:02:26;1.08;;;0.60;;
29006;SDS011;16104;48.642;9.008;2023-04-24T01:07:21;2.75;;;0.90;;
29006;SDS011;16104;48.642;9.008;2023-04-24T01:12:17;2.15;;;0.70;;
29006;SDS011;16104;48.642;9.008;2023-04-24T02:03:01;2.22;;;0.77;;
29006;SDS011;16104;48.642;9.008;2023-04-24T02:07:57;1.33;;;0.80;;
29006;SDS011;16104;48.642;9.008;2023-04-24T02:12:52;1.35;;;0.68;;
29006;SDS011;16104;48.642;9.008;2023-04-24T03:03:37;2.08;;;0.63;;
29006;SDS011;16104;48.642;9.008;2023-04-24T03:08:33;1.08;;;0.65;;
29006;SDS011;16104;48.642;9.008;2023-04-24T03:13:29;1.25;;;0.70;;
29006;SDS011;16104;48.642;9.008;2023-04-24T03:18:25;2.08;;;0.80;;
29006;SDS011;16104;48.642;9.008;2023-04-24T03:23:20;1.30;;;0.73;;
29006;SDS011;16104;48.642;9.008;2023-04-24T03:28:16;2.10;;;1.00;;
29006;SDS011;16104;48.642;9.008;2023-04-24T03:33:12;1.95;;;0.70;;
29006;SDS011;16104;48.642;9.008;2023-04-24T03:38:07;1.38;;;0.70;;
29006;SDS011;16104;48.642;9.008;2023-04-24T03:43:03;1.02;;;0.57;;
29006;SDS011;16104;48.642;9.008;2023-04-24T03:47:58;1.80;;;0.57;;
29006;SDS011;16104;48.642;9.008;2023-04-24T03:52:54;0.73;;;0.50;;
29006;SDS011;16104;48.642;9.008;2023-04-24T03:57:50;2.38;;;0.50;;
29006;SDS011;16104;48.642;9.008;2023-04-24T04:02:45;1.33;;;0.50;;
29006;SDS011;16104;48.642;9.008;2023-04-24T04:07:41;2.13;;;0.50;;
29006;SDS011;16104;48.642;9.008;2023-04-24T04:12:36;1.98;;;0.40;;
29006;SDS011;16104;48.642;9.008;2023-04-24T04:17:32;1.95;;;0.63;;
29006;SDS011;16104;48.642;9.008;2023-04-24T04:22:27;0.65;;;0.50;;
29006;SDS011;16104;48.642;9.008;2023-04-24T04:27:23;1.15;;;0.60;;
29006;SDS011;16104;48.642;9.008;2023-04-24T04:32:18;0.93;;;0.50;;
29006;SDS011;16104;48.642;9.008;2023-04-24T04:37:14;2.42;;;0.50;;
29006;SDS011;16104;48.642;9.008;2023-04-24T04:42:09;1.85;;;0.80;;
29006;SDS011;16104;48.642;9.008;2023-04-24T04:47:05;1.10;;;0.85;;
29006;SDS011;16104;48.642;9.008;2023-04-24T04:52:00;1.05;;;0.90;;
29006;SDS011;16104;48.642;9.008;2023-04-24T04:56:56;2.30;;;1.27;;
29006;SDS011;16104;48.642;9.008;2023-04-24T05:01:52;3.90;;;1.10;;
29006;SDS011;16104;48.642;9.008;2023-04-24T05:06:47;2.10;;;1.13;;
29006;SDS011;16104;48.642;9.008;2023-04-24T05:11:43;1.95;;;1.02;;
29006;SDS011;16104;48.642;9.008;2023-04-24T05:16:39;2.33;;;1.20;;
29006;SDS011;16104;48.642;9.008;2023-04-24T05:21:35;2.42;;;1.30;;
29006;SDS011;16104;48.642;9.008;2023-04-24T05:26:30;1.33;;;1.23;;
29006;SDS011;16104;48.642;9.008;2023-04-24T05:31:26;1.63;;;1.20;;
29006;SDS011;16104;48.642;9.008;2023-04-24T05:36:22;2.67;;;1.10;;
29006;SDS011;16104;48.642;9.008;2023-04-24T05:41:17;2.25;;;1.35;;
29006;SDS011;16104;48.642;9.008;2023-04-24T05:46:13;4.00;;;1.77;;
29006;SDS011;16104;48.642;9.008;2023-04-24T05:51:09;2.20;;;1.33;;
29006;SDS011;16104;48.642;9.008;2023-04-24T05:56:05;1.83;;;1.42;;
29006;SDS011;16104;48.642;9.008;2023-04-24T06:01:00;2.50;;;1.30;;
29006;SDS011;16104;48.642;9.008;2023-04-24T06:05:56;1.40;;;1.30;;
29006;SDS011;16104;48.642;9.008;2023-04-24T06:10:52;1.60;;;1.38;;
29006;SDS011;16104;48.642;9.008;2023-04-24T06:15:47;1.60;;;1.50;;
29006;SDS011;16104;48.642;9.008;2023-04-24T06:20:43;2.03;;;1.42;;
29006;SDS011;16104;48.642;9.008;2023-04-24T06:25:38;1.80;;;1.60;;
29006;SDS011;16104;48.642;9.008;2023-04-24T06:30:34;4.38;;;1.60;;
29006;SDS011;16104;48.642;9.008;2023-04-24T06:35:29;2.78;;;1.58;;
29006;SDS011;16104;48.642;9.008;2023-04-24T06:40:25;2.85;;;1.38;;
29006;SDS011;16104;48.642;9.008;2023-04-24T06:45:21;2.47;;;1.40;;
29006;SDS011;16104;48.642;9.008;2023-04-24T06:50:16;1.60;;;1.40;;
29006;SDS011;16104;48.642;9.008;2023-04-24T06:55:12;2.40;;;1.45;;
29006;SDS011;16104;48.642;9.008;2023-04-24T07:00:08;1.58;;;1.40;;
29006;SDS011;16104;48.642;9.008;2023-04-24T07:05:04;1.58;;;1.48;;
29006;SDS011;16104;48.642;9.008;2023-04-24T07:10:00;1.20;;;1.10;;
29006;SDS011;16104;48.642;9.008;2023-04-24T07:14:56;1.40;;;0.80;;
29006;SDS011;16104;48.642;9.008;2023-04-24T07:19:51;1.08;;;0.95;;
29006;SDS011;16104;48.642;9.008;2023-04-24T07:24:47;1.17;;;0.88;;
29006;SDS011;16104;48.642;9.008;2023-04-24T07:29:42;2.53;;;1.17;;
29006;SDS011;16104;48.642;9.008;2023-04-24T07:34:38;2.13;;;1.17;;
29006;SDS011;16104;48.642;9.008;2023-04-24T07:39:34;1.92;;;1.15;;
29006;SDS011;16104;48.642;9.008;2023-04-24T07:44:29;1.60;;;1.40;;
29006;SDS011;16104;48.642;9.008;2023-04-24T07:49:25;2.25;;;1.33;;
29006;SDS011;16104;48.642;9.008;2023-04-24T07:54:20;2.17;;;1.05;;
29006;SDS011;16104;48.642;9.008;2023-04-24T07:59:16;4.38;;;1.80;;
29006;SDS011;16104;48.642;9.008;2023-04-24T08:04:11;2.03;;;1.40;;
29006;SDS011;16104;48.642;9.008;2023-04-24T08:09:07;2.22;;;1.30;;
29006;SDS011;16104;48.642;9.008;2023-04-24T08:14:02;3.03;;;1.55;;
29006;SDS011;16104;48.642;9.008;2023-04-24T08:18:58;2.42;;;1.50;;
29006;SDS011;16104;48.642;9.008;2023-04-24T08:23:53;2.65;;;1.35;;
29006;SDS011;16104;48.642;9.008;2023-04-24T08:28:49;3.15;;;1.45;;
29006;SDS011;16104;48.642;9.008;2023-04-24T08:33:44;2.08;;;1.60;;
29006;SDS011;16104;48.642;9.008;2023-04-24T08:38:41;3.00;;;1.55;;
29006;SDS011;16104;48.642;9.008;2023-04-24T08:43:37;3.35;;;1.42;;
29006;SDS011;16104;48.642;9.008;2023-04-24T08:48:34;2.25;;;1.38;;
29006;SDS011;16104;48.642;9.008;2023-04-24T08:53:30;1.65;;;1.52;;
29006;SDS011;16104;48.642;9.008;2023-04-24T08:58:27;4.22;;;1.73;;
29006;SDS011;16104;48.642;9.008;2023-04-24T09:03:23;1.88;;;1.48;;
29006;SDS011;16104;48.642;9.008;2023-04-24T09:08:20;4.22;;;2.03;;
29006;SDS011;16104;48.642;9.008;2023-04-24T09:13:19;2.22;;;1.50;;
29006;SDS011;16104;48.642;9.008;2023-04-24T09:18:15;3.25;;;1.80;;
29006;SDS011;16104;48.642;9.008;2023-04-24T09:23:11;3.03;;;1.58;;
29006;SDS011;16104;48.642;9.008;2023-04-24T09:28:12;2.50;;;1.30;;
29006;SDS011;16104;48.642;9.008;2023-04-24T09:38:10;4.43;;;1.20;;
29006;SDS011;16104;48.642;9.008;2023-04-24T09:43:09;1.20;;;1.10;;
29006;SDS011;16104;48.642;9.008;2023-04-24T09:48:09;2.25;;;1.20;;
29006;SDS011;16104;48.642;9.008;2023-04-24T09:53:05;2.85;;;0.88;;
29006;SDS011;16104;48.642;9.008;2023-04-24T09:58:05;2.90;;;1.17;;
29006;SDS011;16104;48.642;9.008;2023-04-24T10:03:04;1.52;;;1.00;;
29006;SDS011;16104;48.642;9.008;2023-04-24T10:08:02;2.75;;;0.93;;
29006;SDS011;16104;48.642;9.008;2023-04-24T10:13:05;1.08;;;1.00;;
29006;SDS011;16104;48.642;9.008;2023-04-24T10:18:04;0.93;;;0.80;;
29006;SDS011;16104;48.642;9.008;2023-04-24T10:23:01;1.85;;;1.00;;
29006;SDS011;16104;48.642;9.008;2023-04-24T10:27:57;2.42;;;1.30;;
29006;SDS011;16104;48.642;9.008;2023-04-24T10:32:54;1.75;;;1.00;;
29006;SDS011;16104;48.642;9.008;2023-04-24T10:38:03;2.08;;;1.02;;
29006;SDS011;16104;48.642;9.008;2023-04-24T10:43:06;1.25;;;1.00;;
29006;SDS011;16104;48.642;9.008;2023-04-24T10:48:05;1.13;;;0.90;;
29006;SDS011;16104;48.642;9.008;2023-04-24T10:53:06;1.15;;;0.90;;
29006;SDS011;16104;48.642;9.008;2023-04-24T10:58:06;1.05;;;0.98;;
29006;SDS011;16104;48.642;9.008;2023-04-24T11:03:03;1.73;;;1.02;;
29006;SDS011;16104;48.642;9.008;2023-04-24T11:08:13;2.63;;;1.10;;
29006;SDS011;16104;48.642;9.008;2023-04-24T11:13:11;1.35;;;1.00;;
29006;SDS011;16104;48.642;9.008;2023-04-24T11:18:13;2.23;;;1.03;;
29006;SDS011;16104;48.642;9.008;2023-04-24T11:23:11;1.50;;;1.00;;
29006;SDS011;16104;48.642;9.008;2023-04-24T11:28:07;1.05;;;0.82;;
29006;SDS011;16104;48.642;9.008;2023-04-24T11:33:10;1.17;;;0.73;;
29006;SDS011;16104;48.642;9.008;2023-04-24T11:38:06;1.05;;;0.80;;
29006;SDS011;16104;48.642;9.008;2023-04-24T11:43:02;0.85;;;0.80;;
29006;SDS011;16104;48.642;9.008;2023-04-24T11:48:00;1.05;;;0.85;;
29006;SDS011;16104;48.642;9.008;2023-04-24T11:52:57;1.63;;;1.10;;
29006;SDS011;16104;48.642;9.008;2023-04-24T11:57:57;2.25;;;1.13;;
29006;SDS011;16104;48.642;9.008;2023-04-24T12:03:09;1.42;;;1.23;;
29006;SDS011;16104;48.642;9.008;2023-04-24T12:08:06;1.33;;;1.20;;
29006;SDS011;16104;48.642;9.008;2023-04-24T12:13:02;1.40;;;1.20;;
29006;SDS011;16104;48.642;9.008;2023-04-24T12:17:58;2.28;;;1.30;;
29006;SDS011;16104;48.642;9.008;2023-04-24T12:22:55;1.10;;;1.00;;
29006;SDS011;16104;48.642;9.008;2023-04-24T12:27:52;2.10;;;1.30;;
29006;SDS011;16104;48.642;9.008;2023-04-24T12:32:50;3.22;;;1.10;;
29006;SDS011;16104;48.642;9.008;2023-04-24T12:37:46;1.92;;;1.20;;
29006;SDS011;16104;48.642;9.008;2023-04-24T12:42:43;4.82;;;1.30;;
29006;SDS011;16104;48.642;9.008;2023-04-24T12:47:45;1.08;;;0.80;;
29006;SDS011;16104;48.642;9.008;2023-04-24T12:52:41;1.73;;;1.08;;
29006;SDS011;16104;48.642;9.008;2023-04-24T12:57:38;3.47;;;1.00;;
29006;SDS011;16104;48.642;9.008;2023-04-24T13:02:34;1.45;;;1.10;;
29006;SDS011;16104;48.642;9.008;2023-04-24T13:07:30;1.45;;;1.17;;
29006;SDS011;16104;48.642;9.008;2023-04-24T13:12:26;1.40;;;1.25;;
29006;SDS011;16104;48.642;9.008;2023-04-24T13:17:21;1.67;;;1.40;;
29006;SDS011;16104;48.642;9.008;2023-04-24T13:22:17;1.58;;;1.38;;
29006;SDS011;16104;48.642;9.008;2023-04-24T13:27:16;1.55;;;1.42;;
29006;SDS011;16104;48.642;9.008;2023-04-24T13:32:12;2.47;;;1.52;;
29006;SDS011;16104;48.642;9.008;2023-04-24T13:37:07;1.75;;;1.42;;
29006;SDS011;16104;48.642;9.008;2023-04-24T13:42:03;1.67;;;1.55;;
29006;SDS011;16104;48.642;9.008;2023-04-24T13:46:58;2.67;;;1.65;;
29006;SDS011;16104;48.642;9.008;2023-04-24T13:51:54;3.80;;;1.70;;
29006;SDS011;16104;48.642;9.008;2023-04-24T13:56:51;2.28;;;1.60;;
29006;SDS011;16104;48.642;9.008;2023-04-24T14:01:47;2.47;;;1.80;;
29006;SDS011;16104;48.642;9.008;2023-04-24T14:06:43;1.63;;;1.50;;
29006;SDS011;16104;48.642;9.008;2023-04-24T14:11:38;2.53;;;1.65;;
29006;SDS011;16104;48.642;9.008;2023-04-24T14:16:34;2.10;;;1.70;;
29006;SDS011;16104;48.642;9.008;2023-04-24T14:21:30;2.33;;;1.63;;
29006;SDS011;16104;48.642;9.008;2023-04-24T14:26:26;2.03;;;1.40;;
29006;SDS011;16104;48.642;9.008;2023-04-24T14:31:21;3.58;;;1.70;;
29006;SDS011;16104;48.642;9.008;2023-04-24T14:36:17;2.38;;;1.70;;
29006;SDS011;16104;48.642;9.008;2023-04-24T14:41:12;10.55;;;4.25;;
29006;SDS011;16104;48.642;9.008;2023-04-24T14:46:08;7.07;;;2.55;;
29006;SDS011;16104;48.642;9.008;2023-04-24T14:51:04;5.05;;;2.35;;
29006;SDS011;16104;48.642;9.008;2023-04-24T14:56:00;4.57;;;2.10;;
29006;SDS011;16104;48.642;9.008;2023-04-24T15:00:55;5.07;;;1.73;;
29006;SDS011;16104;48.642;9.008;2023-04-24T15:05:51;1.85;;;1.40;;
29006;SDS011;16104;48.642;9.008;2023-04-24T15:10:46;4.63;;;2.28;;
29006;SDS011;16104;48.642;9.008;2023-04-24T15:15:43;2.47;;;1.63;;
29006;SDS011;16104;48.642;9.008;2023-04-24T15:20:38;7.03;;;1.65;;
29006;SDS011;16104;48.642;9.008;2023-04-24T15:25:34;3.95;;;2.03;;
29006;SDS011;16104;48.642;9.008;2023-04-24T15:30:30;3.55;;;1.80;;
29006;SDS011;16104;48.642;9.008;2023-04-24T15:35:25;2.13;;;1.58;;
29006;SDS011;16104;48.642;9.008;2023-04-24T15:40:21;2.25;;;1.52;;
29006;SDS011;16104;48.642;9.008;2023-04-24T15:45:17;1.38;;;1.27;;
29006;SDS011;16104;48.642;9.008;2023-04-24T15:50:12;1.75;;;1.40;;
29006;SDS011;16104;48.642;9.008;2023-04-24T15:55:10;1.88;;;1.50;;
29006;SDS011;16104;48.642;9.008;2023-04-24T16:00:06;2.13;;;1.42;;
29006;SDS011;16104;48.642;9.008;2023-04-24T16:05:03;3.97;;;1.60;;
29006;SDS011;16104;48.642;9.008;2023-04-24T16:10:02;6.32;;;2.20;;
29006;SDS011;16104;48.642;9.008;2023-04-24T16:14:58;4.13;;;2.17;;
29006;SDS011;16104;48.642;9.008;2023-04-24T16:19:53;1.98;;;1.27;;
29006;SDS011;16104;48.642;9.008;2023-04-24T16:24:49;2.03;;;1.40;;
29006;SDS011;16104;48.642;9.008;2023-04-24T16:29:44;1.38;;;1.20;;
29006;SDS011;16104;48.642;9.008;2023-04-24T16:34:40;1.55;;;1.10;;
29006;SDS011;16104;48.642;9.008;2023-04-24T16:39:35;1.80;;;1.25;;
29006;SDS011;16104;48.642;9.008;2023-04-24T16:44:32;1.50;;;1.40;;
29006;SDS011;16104;48.642;9.008;2023-04-24T16:49:28;1.20;;;1.00;;
29006;SDS011;16104;48.642;9.008;2023-04-24T16:54:25;2.63;;;1.13;;
29006;SDS011;16104;48.642;9.008;2023-04-24T16:59:21;1.80;;;1.10;;
29006;SDS011;16104;48.642;9.008;2023-04-24T17:04:18;1.10;;;1.00;;
29006;SDS011;16104;48.642;9.008;2023-04-24T17:09:13;1.90;;;1.20;;
29006;SDS011;16104;48.642;9.008;2023-04-24T17:14:09;2.45;;;1.27;;
29006;SDS011;16104;48.642;9.008;2023-04-24T17:19:05;2.22;;;1.27;;
29006;SDS011;16104;48.642;9.008;2023-04-24T17:24:01;1.27;;;1.17;;
29006;SDS011;16104;48.642;9.008;2023-04-24T17:28:56;1.92;;;1.35;;
29006;SDS011;16104;48.642;9.008;2023-04-24T17:33:52;2.15;;;1.60;;
29006;SDS011;16104;48.642;9.008;2023-04-24T17:38:47;1.40;;;1.30;;
29006;SDS011;16104;48.642;9.008;2023-04-24T17:43:43;1.98;;;1.40;;
29006;SDS011;16104;48.642;9.008;2023-04-24T17:48:39;1.40;;;1.30;;
29006;SDS011;16104;48.642;9.008;2023-04-24T17:53:35;1.98;;;1.35;;
29006;SDS011;16104;48.642;9.008;2023-04-24T17:58:30;1.73;;;1.52;;
29006;SDS011;16104;48.642;9.008;2023-04-24T18:03:26;1.92;;;1.58;;
29006;SDS011;16104;48.642;9.008;2023-04-24T18:08:21;3.95;;;1.70;;
29006;SDS011;16104;48.642;9.008;2023-04-24T18:13:17;2.75;;;1.50;;
29006;SDS011;16104;48.642;9.008;2023-04-24T18:18:12;1.95;;;1.60;;
29006;SDS011;16104;48.642;9.008;2023-04-24T18:23:09;2.30;;;1.70;;
29006;SDS011;16104;48.642;9.008;2023-04-24T18:28:04;3.83;;;1.77;;
29006;SDS011;16104;48.642;9.008;2023-04-24T18:33:00;1.90;;;1.70;;
29006;SDS011;16104;48.642;9.008;2023-04-24T18:37:55;1.95;;;1.75;;
29006;SDS011;16104;48.642;9.008;2023-04-24T18:42:51;3.42;;;2.10;;
29006;SDS011;16104;48.642;9.008;2023-04-24T18:47:46;4.20;;;1.90;;
29006;SDS011;16104;48.642;9.008;2023-04-24T18:52:42;3.00;;;1.50;;
29006;SDS011;16104;48.642;9.008;2023-04-24T18:57:37;1.13;;;1.00;;
29006;SDS011;16104;48.642;9.008;2023-04-24T19:02:33;2.22;;;1.40;;
29006;SDS011;16104;48.642;9.008;2023-04-24T19:07:28;2.72;;;1.20;;
29006;SDS011;16104;48.642;9.008;2023-04-24T19:12:24;2.22;;;1.42;;
29006;SDS011;16104;48.642;9.008;2023-04-24T19:17:20;1.60;;;1.50;;
29006;SDS011;16104;48.642;9.008;2023-04-24T19:22:18;1.88;;;1.42;;
29006;SDS011;16104;48.642;9.008;2023-04-24T19:27:17;1.23;;;1.13;;
29006;SDS011;16104;48.642;9.008;2023-04-24T19:32:12;2.30;;;1.58;;
29006;SDS011;16104;48.642;9.008;2023-04-24T19:37:08;1.80;;;1.60;;
29006;SDS011;16104;48.642;9.008;2023-04-24T19:42:03;3.63;;;1.70;;
29006;SDS011;16104;48.642;9.008;2023-04-24T19:46:59;1.85;;;1.50;;
29006;SDS011;16104;48.642;9.008;2023-04-24T19:51:55;4.20;;;2.20;;
29006;SDS011;16104;48.642;9.008;2023-04-24T19:56:50;3.33;;;2.00;;
29006;SDS011;16104;48.642;9.008;2023-04-24T20:01:46;3.35;;;2.10;;
29006;SDS011;16104;48.642;9.008;2023-04-24T20:06:42;2.20;;;2.00;;
29006;SDS011;16104;48.642;9.008;2023-04-24T20:11:37;3.40;;;1.98;;
29006;SDS011;16104;48.642;9.008;2023-04-24T20:16:33;2.65;;;2.15;;
29006;SDS011;16104;48.642;9.008;2023-04-24T20:21:28;2.80;;;2.40;;
29006;SDS011;16104;48.642;9.008;2023-04-24T20:26:24;2.70;;;2.30;;
29006;SDS011;16104;48.642;9.008;2023-04-24T20:31:19;2.78;;;1.92;;
29006;SDS011;16104;48.642;9.008;2023-04-24T20:36:15;2.75;;;1.98;;
29006;SDS011;16104;48.642;9.008;2023-04-24T20:41:11;3.97;;;1.90;;
29006;SDS011;16104;48.642;9.008;2023-04-24T20:46:06;2.53;;;1.90;;
29006;SDS011;16104;48.642;9.008;2023-04-24T20:51:02;2.72;;;1.88;;
29006;SDS011;16104;48.642;9.008;2023-04-24T20:55:57;3.03;;;2.10;;
29006;SDS011;16104;48.642;9.008;2023-04-24T21:00:53;4.13;;;2.15;;
29006;SDS011;16104;48.642;9.008;2023-04-24T21:05:48;2.47;;;2.00;;
29006;SDS011;16104;48.642;9.008;2023-04-24T21:10:44;2.85;;;2.28;;
29006;SDS011;16104;48.642;9.008;2023-04-24T21:15:40;3.30;;;2.25;;
29006;SDS011;16104;48.642;9.008;2023-04-24T21:20:35;2.58;;;1.90;;
29006;SDS011;16104;48.642;9.008;2023-04-24T21:25:31;3.85;;;2.33;;
29006;SDS011;16104;48.642;9.008;2023-04-24T21:30:26;2.25;;;1.95;;
29006;SDS011;16104;48.642;9.008;2023-04-24T21:35:22;2.33;;;1.75;;
29006;SDS011;16104;48.642;9.008;2023-04-24T21:40:17;3.30;;;1.75;;
29006;SDS011;16104;48.642;9.008;2023-04-24T21:50:30;3.90;;;1.98;;
29006;SDS011;16104;48.642;9.008;2023-04-24T21:55:26;2.70;;;1.80;;
29006;SDS011;16104;48.642;9.008;2023-04-24T22:00:22;2.47;;;2.10;;
29006;SDS011;16104;48.642;9.008;2023-04-24T22:05:18;2.15;;;1.95;;
29006;SDS011;16104;48.642;9.008;2023-04-24T22:10:14;14.15;;;9.85;;
29006;SDS011;16104;48.642;9.008;2023-04-24T22:15:11;77.10;;;55.13;;
29006;SDS011;16104;48.642;9.008;2023-04-24T22:20:06;40.08;;;31.35;;
29006;SDS011;16104;48.642;9.008;2023-04-24T22:25:02;18.25;;;15.88;;
29006;SDS011;16104;48.642;9.008;2023-04-24T22:29:58;13.13;;;11.50;;
29006;SDS011;16104;48.642;9.008;2023-04-24T22:34:53;24.02;;;20.83;;
29006;SDS011;16104;48.642;9.008;2023-04-24T22:39:49;13.07;;;10.98;;
29006;SDS011;16104;48.642;9.008;2023-04-24T22:44:44;4.95;;;4.05;;
29006;SDS011;16104;48.642;9.008;2023-04-24T22:49:40;4.25;;;2.72;;
29006;SDS011;16104;48.642;9.008;2023-04-24T22:54:36;3.72;;;2.30;;
29006;SDS011;16104;48.642;9.008;2023-04-24T22:59:31;3.90;;;2.60;;
29006;SDS011;16104;48.642;9.008;2023-04-24T23:04:27;3.35;;;2.58;;
29006;SDS011;16104;48.642;9.008;2023-04-24T23:09:23;3.67;;;2.65;;
29006;SDS011;16104;48.642;9.008;2023-04-24T23:14:18;6.22;;;2.85;;
29006;SDS011;16104;48.642;9.008;2023-04-24T23:19:14;5.30;;;2.70;;
29006;SDS011;16104;48.642;9.008;2023-04-24T23:24:09;2.85;;;2.25;;
29006;SDS011;16104;48.642;9.008;2023-04-24T23:29:05;5.15;;;2.20;;
29006;SDS011;16104;48.642;9.008;2023-04-24T23:34:00;3.45;;;2.72;;
29006;SDS011;16104;48.642;9.008;2023-04-24T23:38:57;5.78;;;2.80;;
29006;SDS011;16104;48.642;9.008;2023-04-24T23:43:52;2.60;;;2.28;;
29006;SDS011;16104;48.642;9.008;2023-04-24T23:48:48;2.83;;;2.50;;
29006;SDS011;16104;48.642;9.008;2023-04-24T23:53:43;3.70;;;2.72;;
29006;SDS011;16104;48.642;9.008;2023-04-24T23:58:39;2.92;;;2.28;;
